ICE623 BIKF-KEWR
Flight info
| Callsign | ICE623 |
|---|---|
| Flight time | N/A |
| Altitude | 34000 |
| Route | RALOV DCT RAKIS DCT 63N030W 61N040W 58N050W DCT DORYY/N0442F340 DCT CEFOU/N0446F360 DCT KJOHN DCT HANAA FLOSI4 |
| Aircraft | A21N/M-SDE2E3FGHIJ1J3J4J5P2RWXY/LB1D1G1 |
Departure
| Time | N/A |
|---|---|
| Airport | Keflavik International Airport (BIKF) |
Arrival
| Time | 2026-05-03 20:15 |
|---|---|
| Airport | Newark Liberty International Airport (KEWR) |
| Time | Latitude | Longitude | Altitude | Speed | Heading |
|---|---|---|---|---|---|
| 2026-05-03 20:15 | 40.70002 | -74.18068 | 25 ft | 5 kts | 96° |
| 2026-05-03 20:16 | 40.70002 | -74.18059 | 29 ft | 5 kts | 96° |
| 2026-05-03 20:16 | 40.70000 | -74.18012 | 25 ft | 6 kts | 93° |
| 2026-05-03 20:16 | 40.69997 | -74.17953 | 28 ft | 7 kts | 93° |
| 2026-05-03 20:17 | 40.69992 | -74.17883 | 26 ft | 8 kts | 96° |
| 2026-05-03 20:17 | 40.69986 | -74.17803 | 29 ft | 9 kts | 96° |
| 2026-05-03 20:17 | 40.69976 | -74.17714 | 29 ft | 10 kts | 105° |
| 2026-05-03 20:17 | 40.69929 | -74.17646 | 25 ft | 11 kts | 138° |
| 2026-05-03 20:18 | 40.69904 | -74.17561 | 25 ft | 10 kts | 95° |
| 2026-05-03 20:18 | 40.69891 | -74.17464 | 25 ft | 11 kts | 108° |
| 2026-05-03 20:18 | 40.69856 | -74.17367 | 29 ft | 12 kts | 125° |
| 2026-05-03 20:18 | 40.69797 | -74.17278 | 29 ft | 13 kts | 134° |
| 2026-05-03 20:19 | 40.69726 | -74.17192 | 28 ft | 14 kts | 142° |
| 2026-05-03 20:19 | 40.69635 | -74.17126 | 26 ft | 15 kts | 158° |
| 2026-05-03 20:19 | 40.69530 | -74.17083 | 26 ft | 16 kts | 168° |
| 2026-05-03 20:19 | 40.69413 | -74.17070 | 26 ft | 17 kts | 181° |
| 2026-05-03 20:20 | 40.69294 | -74.17107 | 28 ft | 18 kts | 206° |
| 2026-05-03 20:20 | 40.69186 | -74.17179 | 25 ft | 16 kts | 204° |
| 2026-05-03 20:20 | 40.69083 | -74.17243 | 25 ft | 17 kts | 205° |
| 2026-05-03 20:20 | 40.69027 | -74.17287 | 26 ft | 6 kts | 265° |
| 2026-05-03 20:21 | 40.69047 | -74.17360 | 26 ft | 9 kts | 297° |
| 2026-05-03 20:21 | 40.69070 | -74.17421 | 25 ft | 3 kts | 296° |
| 2026-05-03 20:21 | 40.69087 | -74.17442 | 28 ft | 2 kts | 343° |
| 2026-05-03 20:21 | 40.69096 | -74.17437 | 27 ft | 4 kts | 21° |
| 2026-05-03 20:22 | 40.69122 | -74.17424 | 28 ft | 1 kts | 23° |
| 2026-05-03 20:22 | 40.69125 | -74.17422 | 27 ft | 0 kts | 23° |